Impacts METAR Board
IDs:

KCXO - Conroe/Executive Arp, TX, US

Updated at: 0500 UTC 19 Aug 2019
Potential Impact None Slight Moderate High
Time 18/17Z 18/18Z 18/19Z 18/20Z 18/21Z 18/22Z 18/23Z 19/00Z 19/01Z 19/02Z 19/03Z 19/04Z 19/05Z
Temp95 95 95 97 98 98 95 93 89 86 85 83 83
Dewpt74 73 74 72 71 72 74 76 76 76 75 76 76
Altim29.93 29.93 29.92 29.90 29.89 29.87 29.88 29.89 29.89 29.90 29.92 29.94 29.95
VIS10 10 10 10 10 10 10 10 10 10 10 10 10
CIG-- 50 -- -- -- -- -- -- -- -- -- -- --
CoverSCTBKNSCTCLRCLRSCTFEWCLRCLRCLRCLRCLRCLR
FltCatVFRVFRVFRVFRVFRVFRVFRVFRVFRVFRVFRVFRVFR
WX--------------------------
WDir190200190180190180150160130150140140160
WSpd10 8 14 11 9 9 12 12 8 8 8 6 5
WGst19 -- -- -- -- -- -- -- -- -- -- -- --
Raw hourly METARs
KCXO 181653Z 19010G19KT 10SM SCT042 35/23 A2993 RMK AO2 SLP132 T03500233
KCXO 181753Z 20008KT 10SM BKN050 35/23 A2993 RMK AO2 SLP129 T03500228 10361 20239 58006
KCXO 181853Z 19014KT 10SM FEW050 SCT075 35/23 A2992 RMK AO2 SLP126 T03500233
KCXO 181953Z 18011KT 10SM CLR 36/22 A2990 RMK AO2 SLP121 T03610222
KCXO 182053Z 19009KT 10SM CLR 37/22 A2989 RMK AO2 SLP116 T03670217 58013
KCXO 182153Z 18009KT 10SM SCT055 37/22 A2987 RMK AO2 SLP110 T03670222
KCXO 182253Z 15012KT 10SM FEW050 35/23 A2988 RMK AO2 SLP115 T03500233
KCXO 182353Z 16012KT 10SM CLR 34/24 A2989 RMK AO2 SLP116 T03390244 10367 20333 55000
KCXO 190053Z 13008KT 10SM CLR 32/24 A2989 RMK AO2 SLP117 T03170244
KCXO 190153Z AUTO 15008KT 10SM CLR 30/24 A2990 RMK AO2 SLP119 T03000244
KCXO 190253Z AUTO 14008KT 10SM CLR 29/24 A2992 RMK AO2 SLP128 T02940239 53012
KCXO 190353Z AUTO 14006KT 10SM CLR 28/24 A2994 RMK AO2 SLP135 T02830244
KCXO 190453Z AUTO 16005KT 10SM CLR 28/24 A2995 RMK AO2 SLP138 T02830244



Page loaded:  05:50 UTC  |   10:50 PM Pacific  |   11:50 PM Mountain  |   12:50 AM Central  |   01:50 AM Eastern

 

ADVISORIES

FORECASTS

FORECASTS

OBSERVATIONS

USER TOOLS

ABOUT US